Las Tinajas, Argentina
Current Conditions -  °F | °C
As of 8:00 AM on Friday 31 Oct 2014 (Local Time) from SANT Reporting Station
Broken Clouds Broken Clouds  
Wind Chill: 72°   Ceiling: 3000
Heat Index: 72°   Visibility: 6mi
Dew Point: 66°   Wind: 0mph
Humidity: 83%   Direction: NA
Pressure: 29.85"   Gusts: NA
Location:  27.38°S, 62.76°W
Report Text: SANT 311100Z 00000KT 9999 BKN030 FEW10022/19 Q1011
Loading
Personal Weather Stations






























Interactive Weather Map
Tropical Storm Tracking
New forecast layout! Learn more

10-Day Weather Forecast

Advertisements
Track Severe Weather on mobile